This is the latest recevied weather packets stored in our database for station/object KA3RQR. If no packets are shown the sender has not sent any weather packets the latest 10 day(s).
| Time | Temp. | Humidity | Pressure | Rain* | Wind** | Luminosity | Snow |
|---|---|---|---|---|---|---|---|
| 1778156160 | 11.67° C | 80% | 1013.1 hPa | 0 mm | - | 17 W/m² | - |
| 1778155857 | 11.67° C | 80% | 1013.1 hPa | 0 mm | - | 18 W/m² | - |
| 1778155553 | 11.67° C | 80% | 1012.9 hPa | 0 mm | - | 16 W/m² | - |
| 1778155250 | 11.67° C | 81% | 1013 hPa | 0 mm | - | 16 W/m² | - |
| 1778154946 | 11.67° C | 82% | 1012.9 hPa | 0 mm | - | 16 W/m² | - |
| 1778154642 | 11.67° C | 82% | 1012.8 hPa | 0 mm | - | 20 W/m² | - |
| 1778154338 | 11.67° C | 83% | 1012.9 hPa | 0 mm | - | 21 W/m² | - |
| 1778154036 | 11.67° C | 82% | 1012.8 hPa | 0 mm | - | 17 W/m² | - |
| 1778153732 | 11.67° C | 83% | 1012.9 hPa | 0 mm | - | 20 W/m² | - |
| 1778153430 | 11.67° C | 84% | 1012.4 hPa | 0 mm | - | 35 W/m² | - |
| 1778153127 | 11.67° C | 85% | 1012.4 hPa | 0 mm | - | 25 W/m² | - |
| 1778152824 | 11.67° C | 85% | 1012.6 hPa | 0 mm | - | 17 W/m² | - |
| 1778152521 | 11.67° C | 86% | 1012.6 hPa | 0 mm | - | 10 W/m² | - |
| 1778152218 | 11.67° C | 86% | 1012.5 hPa | 0 mm | - | 10 W/m² | - |
| 1778151914 | 11.67° C | 87% | 1012.6 hPa | 0 mm | - | 13 W/m² | - |
| 1778151610 | 11.67° C | 87% | 1012.5 hPa | 0 mm | - | 10 W/m² | - |
| 1778151308 | 11.67° C | 87% | 1012.7 hPa | 0 mm | - | 6 W/m² | - |
| 1778151003 | 11.67° C | 87% | 1012.6 hPa | 0 mm | - | 5 W/m² | - |
| 1778150701 | 11.67° C | 87% | 1012.5 hPa | 0 mm | - | 6 W/m² | - |
| 1778150396 | 11.67° C | 87% | 1012.4 hPa | 0 mm | - | 4 W/m² | - |
| 1778150094 | 11.67° C | 88% | 1012.3 hPa | 0 mm | - | 2 W/m² | - |
| 1778149790 | 11.67° C | 88% | 1012.2 hPa | 0 mm | - | 2 W/m² | - |
| 1778149487 | 11.67° C | 88% | 1012.2 hPa | 0 mm | - | 0 W/m² | - |
| 1778149183 | 11.67° C | 88% | 1012.1 hPa | 0 mm | - | 0 W/m² | - |
| 1778148878 | 11.67° C | 89% | 1012.2 hPa | 0 mm | - | 0 W/m² | - |
* Rain latest hour (hover to see other rain measurements)
** Current wind speed in m/s (hover to see current wind gust speed)